createdAt,value
2018-09-30T16:00:32.180Z,100258.53
2018-09-30T16:03:02.092Z,100257.87
2018-09-30T16:05:32.030Z,100254.81
2018-09-30T16:08:01.937Z,100261.34
2018-09-30T16:10:32.191Z,100258.60
2018-09-30T16:13:02.104Z,100251.54
2018-09-30T16:15:32.123Z,100252.27
2018-09-30T16:18:02.126Z,100255.06
2018-09-30T16:20:32.416Z,100251.84
2018-09-30T16:23:02.256Z,100249.56
2018-09-30T16:25:32.166Z,100250.37
2018-09-30T16:28:02.095Z,100241.49
2018-09-30T16:30:31.890Z,100238.00
2018-09-30T16:33:01.886Z,100243.47
2018-09-30T16:35:31.936Z,100238.73
2018-09-30T16:38:01.828Z,100242.77
2018-09-30T16:40:31.743Z,100235.73
2018-09-30T16:43:01.899Z,100235.34
2018-09-30T16:45:31.924Z,100235.98
2018-09-30T16:48:02.748Z,100235.45
2018-09-30T16:50:32.979Z,100233.50
2018-09-30T16:53:02.835Z,100232.99
2018-09-30T16:55:34.303Z,100232.34
2018-09-30T16:58:04.497Z,100225.98
2018-09-30T17:00:36.059Z,100231.20
2018-09-30T17:03:06.286Z,100233.02
2018-09-30T17:05:36.310Z,100234.48
2018-09-30T17:08:06.391Z,100237.47
2018-09-30T17:10:36.605Z,100163.19
2018-09-30T17:13:07.009Z,100226.98
2018-09-30T17:15:37.184Z,100228.34
2018-09-30T17:18:07.313Z,100225.02
2018-09-30T17:20:37.297Z,100225.53
2018-09-30T17:23:07.602Z,100224.63
2018-09-30T17:25:38.854Z,100227.00
2018-09-30T17:28:09.615Z,100231.79
2018-09-30T17:30:42.647Z,100224.53
2018-09-30T17:33:13.603Z,100214.91
2018-09-30T17:35:43.923Z,100208.14
2018-09-30T17:38:15.728Z,100205.67
2018-09-30T17:40:46.822Z,100197.72
2018-09-30T17:43:16.814Z,100202.50
2018-09-30T17:45:46.835Z,100200.02
2018-09-30T17:48:16.829Z,100198.95
2018-09-30T17:50:46.824Z,100195.89
2018-09-30T17:53:16.986Z,100200.80
2018-09-30T17:55:48.051Z,100190.17
2018-09-30T17:58:18.248Z,100203.88
2018-09-30T18:03:23.401Z,100197.61
2018-09-30T18:05:56.265Z,100203.73
2018-09-30T18:08:27.148Z,100204.59
2018-09-30T18:10:58.117Z,100202.36
2018-09-30T18:13:28.993Z,100199.63
2018-09-30T18:15:58.876Z,100197.94
2018-09-30T18:18:29.007Z,100195.59
2018-09-30T18:20:59.414Z,100190.20
2018-09-30T18:23:29.521Z,100182.34
2018-09-30T18:25:59.777Z,100192.52
2018-09-30T18:28:29.752Z,100193.95
2018-09-30T18:30:59.807Z,100192.36
2018-09-30T18:33:29.801Z,100185.78
2018-09-30T18:35:59.793Z,100188.28
2018-09-30T18:38:30.196Z,100186.02
2018-09-30T18:41:02.301Z,100182.42
2018-09-30T18:43:32.272Z,100180.29
2018-09-30T18:46:02.053Z,100181.19
2018-09-30T18:51:07.609Z,100173.83
2018-09-30T18:53:37.717Z,100181.44
2018-09-30T18:56:07.740Z,100172.81
2018-09-30T18:58:38.628Z,100161.36
2018-09-30T19:01:09.210Z,100166.56
2018-09-30T19:03:39.764Z,100169.94
2018-09-30T19:06:09.750Z,100169.28
2018-09-30T19:08:39.916Z,100174.95
2018-09-30T19:11:09.909Z,100170.31
2018-09-30T19:13:40.210Z,100170.66
2018-09-30T19:16:10.245Z,100164.67
2018-09-30T19:18:40.483Z,100166.34
2018-09-30T19:21:11.130Z,100160.86
2018-09-30T19:23:41.171Z,100154.88
2018-09-30T19:26:11.223Z,100154.71
2018-09-30T19:28:41.289Z,100148.58
2018-09-30T19:31:11.208Z,100141.27
2018-09-30T19:33:41.681Z,100146.73
2018-09-30T19:36:11.883Z,100142.59
2018-09-30T19:38:42.353Z,100133.44
2018-09-30T19:41:14.469Z,100129.30
2018-09-30T19:43:44.642Z,100128.46
2018-09-30T19:46:15.146Z,100125.47
2018-09-30T19:48:45.131Z,100118.67
2018-09-30T19:51:15.213Z,100046.73
2018-09-30T19:53:45.448Z,100116.38
2018-09-30T19:56:15.836Z,100117.58
2018-09-30T19:58:45.624Z,100114.68
2018-09-30T20:01:16.091Z,100109.55
2018-09-30T20:03:46.789Z,100107.69
2018-09-30T20:06:16.905Z,100102.85
2018-09-30T20:08:46.877Z,100099.42
2018-09-30T20:11:17.247Z,100102.02
2018-09-30T20:13:48.069Z,100103.16
2018-09-30T20:16:18.313Z,100095.97
2018-09-30T20:18:48.190Z,100087.78
2018-09-30T20:21:18.971Z,100086.84
2018-09-30T20:23:48.952Z,100085.80
2018-09-30T20:26:19.721Z,100065.77
2018-09-30T20:28:49.464Z,100078.52
2018-09-30T20:31:19.357Z,100072.27
2018-09-30T20:33:49.264Z,100074.94
2018-09-30T20:36:19.025Z,100072.72
2018-09-30T20:38:48.883Z,100062.48
2018-09-30T20:41:18.595Z,100059.98
2018-09-30T20:43:48.340Z,100061.92
2018-09-30T20:46:18.492Z,100062.28
2018-09-30T20:48:48.494Z,100059.01
2018-09-30T20:51:19.735Z,100059.25
2018-09-30T20:53:50.519Z,100061.67
2018-09-30T20:56:21.911Z,100045.44
2018-09-30T20:58:58.522Z,100054.08
2018-09-30T21:01:28.978Z,100054.77
2018-09-30T21:03:58.825Z,100053.63
2018-09-30T21:06:30.137Z,100043.31
2018-09-30T21:09:00.405Z,100042.85
2018-09-30T21:11:30.440Z,100043.31
2018-09-30T21:14:01.690Z,100044.51
2018-09-30T21:16:31.699Z,100042.34
2018-09-30T21:19:01.476Z,100044.31
2018-09-30T21:21:31.325Z,100043.15
2018-09-30T21:24:02.683Z,100042.30
2018-09-30T21:26:33.471Z,100039.57
2018-09-30T21:29:04.402Z,100034.41
2018-09-30T21:31:35.610Z,100034.23
2018-09-30T21:34:06.521Z,100040.37
2018-09-30T21:36:37.385Z,100035.56
2018-09-30T21:39:10.714Z,100033.95
2018-09-30T21:41:40.469Z,100031.55
2018-09-30T21:44:10.474Z,100032.25
2018-09-30T21:46:41.354Z,100031.28
2018-09-30T21:49:12.677Z,100028.19
2018-09-30T21:51:43.566Z,100025.64
2018-09-30T21:54:14.826Z,100028.47
2018-09-30T21:56:45.783Z,100027.80
2018-09-30T21:59:16.911Z,100017.89
2018-09-30T22:01:48.052Z,100001.05
2018-09-30T22:04:18.726Z,100014.92
2018-09-30T22:06:49.628Z,100007.03
2018-09-30T22:09:20.566Z,100013.43
2018-09-30T22:11:51.655Z,100010.48
2018-09-30T22:14:22.588Z,100007.70
2018-09-30T22:16:53.559Z,100007.20
2018-09-30T22:19:24.552Z,100011.86
2018-09-30T22:21:55.616Z,100010.17
2018-09-30T22:24:26.425Z,100001.87
2018-09-30T22:26:57.505Z,100004.85
2018-09-30T22:29:28.612Z,99998.70
2018-09-30T22:31:59.574Z,100003.52
2018-09-30T22:34:30.357Z,99997.55
2018-09-30T22:37:01.862Z,99994.22
2018-09-30T22:39:32.751Z,99994.37
2018-09-30T22:42:03.703Z,99996.34
2018-09-30T22:44:34.589Z,99996.02
2018-09-30T22:47:05.502Z,99992.36
2018-09-30T22:49:36.348Z,99978.59
2018-09-30T22:52:07.840Z,99993.53
2018-09-30T22:54:38.645Z,99992.53
2018-09-30T22:57:09.586Z,99980.88
2018-09-30T22:59:40.527Z,99983.20
2018-09-30T23:02:11.488Z,99917.61
2018-09-30T23:04:42.529Z,99980.88
2018-09-30T23:07:13.768Z,99962.27
2018-09-30T23:09:44.611Z,99977.86
2018-09-30T23:12:15.964Z,99980.20
2018-09-30T23:14:46.638Z,99975.34
2018-09-30T23:17:17.623Z,99979.85
2018-09-30T23:19:48.419Z,99977.17
2018-09-30T23:22:20.485Z,99974.80
2018-09-30T23:24:51.844Z,99973.80
2018-09-30T23:27:21.818Z,99973.77
2018-09-30T23:29:52.665Z,99974.75
2018-09-30T23:32:22.655Z,99981.70
2018-09-30T23:34:53.527Z,99977.38
2018-09-30T23:37:24.530Z,99978.87
2018-09-30T23:39:55.329Z,99960.55
2018-09-30T23:42:27.113Z,99975.15
2018-09-30T23:44:57.630Z,99968.96
2018-09-30T23:47:28.565Z,99970.63
2018-09-30T23:49:59.428Z,99970.63
2018-09-30T23:52:30.822Z,99965.64
2018-09-30T23:55:01.682Z,99967.30
2018-09-30T23:57:32.632Z,99963.30
